Latest Weather Observations for Karratha

IDW60801

Issued at 7:23 am WST Wednesday 18 September 2019 (issued every 10 minutes, with the page automatically refreshed every 10 minutes)

About weather observations | Map of weather stations | Latest weather observations for WA | Other Formats
Station Details ID: 004083 Name: KARRATHA AERO Lat: -20.71 Lon: 116.77 Height: 5.3 m
Data from the previous 72 hours. | See also: Recent months at Karratha
Date/Time
WST
Temp
°C
App
Temp
°C
Dew
Point
°C
Rel
Hum
%
Delta-T
°C
Wind Press
QNH
hPa
Press
MSL
hPa
Rain since
9am
mm
Dir  Spd
km/h
Gust
km/h
Spd
kts
Gust
kts
18/07:00am 21.6 21.9 18.0 80 2.2 SW 13 17 7 9 1015.8 1015.8 0.0
18/06:30am 19.8 20.1 17.9 89 1.2 SW 13 15 7 8 1015.6 1015.6 0.0
18/06:00am 19.1 19.5 17.2 89 1.2 SW 11 13 6 7 1015.5 1015.5 0.0
18/05:30am 19.7 20.2 17.5 87 1.3 SW 11 11 6 6 1015.5 1015.5 0.0
18/05:00am 19.4 20.0 16.8 85 1.6 SW 9 11 5 6 1015.3 1015.3 0.0
18/04:30am 20.2 20.9 17.0 82 1.9 WSW 9 13 5 7 1015.3 1015.3 0.0
18/04:00am 20.9 21.8 17.5 81 2.1 WSW 9 11 5 6 1015.2 1015.2 0.0
18/03:30am 23.1 24.6 19.7 81 2.2 W 11 15 6 8 1015.1 1015.1 0.0
18/03:00am 23.1 24.4 19.3 79 2.4 W 11 15 6 8 1015.2 1015.2 0.0
18/02:30am 23.6 24.3 18.9 75 3.0 W 13 15 7 8 1015.3 1015.3 0.0
18/02:00am 23.7 23.2 17.9 70 3.6 W 17 20 9 11 1015.6 1015.6 0.0
18/01:30am 24.0 22.9 17.3 66 4.2 W 19 22 10 12 1015.7 1015.7 0.0
18/01:00am 23.8 22.4 16.6 64 4.4 WSW 19 22 10 12 1016.0 1016.0 0.0
18/12:30am 24.0 22.1 16.8 64 4.4 WSW 22 28 12 15 1016.0 1016.0 0.0
18/12:00am 24.2 22.5 17.2 65 4.3 WSW 22 28 12 15 1016.1 1016.1 0.0
 
Date/Time
WST
Temp
°C
App
Temp
°C
Dew
Point
°C
Rel
Hum
%
Delta-T
°C
Wind Press
QNH
hPa
Press
MSL
hPa
Rain since
9am
mm
Dir  Spd
km/h
Gust
km/h
Spd
kts
Gust
kts
17/11:30pm 24.6 23.1 17.8 66 4.3 WSW 22 26 12 14 1015.9 1015.9 0.0
17/11:00pm 24.7 23.8 19.1 71 3.6 WSW 22 26 12 14 1016.1 1016.1 0.0
17/10:30pm 25.0 24.1 19.8 73 3.4 WSW 24 28 13 15 1016.2 1016.2 0.0
17/10:00pm 25.3 24.4 19.0 68 4.0 WSW 22 28 12 15 1016.3 1016.3 0.0
17/09:30pm 25.2 26.0 20.7 76 2.9 WSW 17 22 9 12 1016.3 1016.3 0.0
17/09:00pm 25.5 26.9 20.3 73 3.4 WSW 13 15 7 8 1016.2 1016.2 0.0
17/08:30pm 26.0 26.1 19.9 69 4.0 WSW 19 24 10 13 1016.0 1016.0 0.0
17/08:00pm 26.1 26.7 20.2 70 3.8 WSW 17 20 9 11 1015.5 1015.5 0.0
17/07:30pm 27.1 25.9 17.0 54 6.3 W 19 24 10 13 1015.3 1015.3 0.0
17/07:00pm 27.9 25.9 13.8 42 8.4 WNW 17 22 9 12 1014.9 1014.9 0.0
17/06:30pm 27.1 26.9 18.4 59 5.5 WNW 17 20 9 11 1014.6 1014.6 0.0
17/06:00pm 28.0 27.4 18.4 56 6.1 WNW 19 24 10 13 1014.1 1014.1 0.0
17/05:30pm 29.3 27.5 16.1 44 8.2 WNW 20 28 11 15 1013.9 1013.9 0.0
17/05:00pm 30.2 27.5 17.6 46 8.0 NW 28 35 15 19 1013.5 1013.5 0.0
17/04:30pm 30.6 28.2 17.3 45 8.4 NW 26 32 14 17 1013.5 1013.5 0.0
17/04:00pm 31.5 28.6 15.0 36 10.1 NW 24 28 13 15 1013.5 1013.5 0.0
17/03:30pm 32.9 29.4 13.5 30 11.7 WNW 24 32 13 17 1013.5 1013.5 0.0
17/03:00pm 32.8 29.0 12.4 29 12.1 NW 24 32 13 17 1013.5 1013.5 0.0
17/02:30pm 32.3 29.0 14.0 33 11.1 NW 24 30 13 16 1013.6 1013.6 0.0
17/02:00pm 31.6 30.1 18.6 46 8.4 NNW 24 33 13 18 1013.7 1013.7 0.0
17/01:30pm 31.8 29.9 17.7 43 9.0 NW 24 32 13 17 1013.9 1013.9 0.0
17/01:00pm 33.2 30.7 15.2 33 11.2 NW 22 30 12 16 1014.3 1014.3 0.0
17/12:30pm 33.7 30.7 12.7 28 12.6 NW 20 24 11 13 1014.6 1014.6 0.0
17/12:00pm 33.3 30.1 11.8 27 12.7 NW 20 24 11 13 1014.8 1014.8 0.0
17/11:30am 32.8 30.8 13.9 31 11.5 WNW 17 24 9 13 1015.2 1015.2 0.0
17/11:00am 32.9 30.1 8.4 22 13.7 WNW 13 20 7 11 1015.5 1015.5 0.0
17/10:30am 32.2 29.4 8.4 23 13.2 WNW 13 17 7 9 1015.9 1015.9 0.0
17/10:00am 30.4 29.1 11.4 31 11.0 WNW 9 13 5 7 1016.1 1016.1 0.0
17/09:30am 28.8 28.4 13.1 38 9.3 WNW 7 11 4 6 1016.1 1016.1 0.0
17/09:00am 27.0 27.4 16.3 52 6.6 W 9 15 5 8 1016.2 1016.2 0.0
17/08:30am 25.6 26.7 16.7 58 5.5 WNW 6 7 3 4 1016.1 1016.1 0.0
17/08:00am 24.2 25.0 17.2 65 4.3 WSW 9 11 5 6 1015.9 1015.9 0.0
17/07:30am 23.1 23.4 18.0 73 3.2 W 13 15 7 8 1015.5 1015.5 0.0
17/07:00am 21.5 22.4 18.3 82 2.0 WSW 11 13 6 7 1015.2 1015.2 0.0
17/06:30am 19.2 19.6 17.2 88 1.2 WSW 11 11 6 6 1014.9 1014.9 0.0
17/06:00am 19.2 19.0 16.6 85 1.6 WSW 13 17 7 9 1014.7 1014.7 0.0
17/05:30am 20.0 19.7 17.4 85 1.6 WSW 15 17 8 9 1014.4 1014.4 0.0
17/05:00am 20.9 20.4 17.9 83 1.9 WSW 17 19 9 10 1014.2 1014.2 0.0
17/04:30am 21.4 21.3 17.8 80 2.2 WSW 15 17 8 9 1014.3 1014.3 0.0
17/04:00am 21.8 21.8 18.0 79 2.4 WSW 15 20 8 11 1013.9 1013.9 0.0
17/03:30am 21.8 21.3 17.8 78 2.5 WSW 17 22 9 12 1013.8 1013.8 0.0
17/03:00am 21.7 21.6 18.7 83 1.9 WSW 17 20 9 11 1013.9 1013.9 0.0
17/02:30am 21.2 20.7 18.6 85 1.6 SW 19 20 10 11 1014.2 1014.2 0.0
17/02:00am 22.0 22.1 19.2 84 1.8 WSW 17 20 9 11 1014.5 1014.5 0.0
17/01:30am 22.3 22.0 19.1 82 2.0 WSW 19 22 10 12 1014.7 1014.7 0.0
17/01:00am 22.5 22.3 19.7 84 1.8 WSW 20 24 11 13 1014.8 1014.8 0.0
17/12:30am 22.8 23.3 20.9 89 1.2 WSW 19 22 10 12 1014.9 1014.9 0.0
17/12:00am 23.1 24.4 21.7 92 0.9 WSW 17 20 9 11 1015.0 1015.0 0.0
 
Date/Time
WST
Temp
°C
App
Temp
°C
Dew
Point
°C
Rel
Hum
%
Delta-T
°C
Wind Press
QNH
hPa
Press
MSL
hPa
Rain since
9am
mm
Dir  Spd
km/h
Gust
km/h
Spd
kts
Gust
kts
16/11:30pm 23.4 24.6 22.2 93 0.8 WSW 19 20 10 11 1015.1 1015.1 0.0
16/11:00pm 24.3 25.0 21.6 85 1.8 WSW 20 24 11 13 1015.2 1015.2 0.0
16/10:30pm 24.7 24.0 20.2 76 2.9 W 24 30 13 16 1015.3 1015.3 0.0
16/10:00pm 24.9 24.5 21.0 79 2.6 W 24 30 13 16 1015.6 1015.6 0.0
16/09:30pm 24.8 25.2 22.5 87 1.5 W 24 30 13 16 1015.7 1015.7 0.0
16/09:00pm 25.1 25.6 22.0 83 2.1 W 22 28 12 15 1015.6 1015.6 0.0
16/08:30pm 25.4 26.2 21.7 80 2.5 W 20 26 11 14 1015.3 1015.3 0.0
16/08:00pm 25.6 25.9 20.4 73 3.4 WNW 19 24 10 13 1015.2 1015.2 0.0
16/07:30pm 25.9 25.9 19.8 69 4.0 WNW 19 26 10 14 1014.9 1014.9 0.0
16/07:00pm 26.3 25.1 18.4 61 5.0 WNW 22 26 12 14 1014.4 1014.4 0.0
16/06:30pm 27.3 25.1 16.0 50 6.9 NW 22 28 12 15 1013.9 1013.9 0.0
16/06:00pm 28.3 26.8 16.2 47 7.5 NW 19 24 10 13 1013.6 1013.6 0.0
16/05:30pm 31.0 26.7 6.8 22 13.0 WNW 19 24 10 13 1013.3 1013.3 0.0
16/05:00pm 32.4 27.4 1.5 14 15.4 NW 17 20 9 11 1013.1 1013.1 0.0
16/04:30pm 32.8 28.7 6.2 19 14.3 WNW 17 20 9 11 1013.1 1013.1 0.0
16/04:00pm 33.4 28.7 5.0 17 15.1 WNW 19 20 10 11 1013.1 1013.1 0.0
16/03:30pm 33.8 29.3 6.2 18 15.0 NW 19 22 10 12 1013.1 1013.1 0.0
16/03:00pm 33.2 30.7 12.2 28 12.5 NW 17 20 9 11 1013.3 1013.3 0.0
16/02:30pm 34.0 31.3 11.8 26 13.1 NW 17 20 9 11 1013.4 1013.4 0.0
16/02:00pm 32.6 30.1 12.3 29 12.0 NNW 17 20 9 11 1013.5 1013.5 0.0
16/01:30pm 33.3 29.6 8.0 21 14.1 NNW 17 20 9 11 1013.8 1013.8 0.0
16/01:00pm 33.1 29.9 9.8 24 13.3 N 17 20 9 11 1014.2 1014.2 0.0
16/12:30pm 33.0 29.5 5.5 18 14.7 N 13 19 7 10 1014.6 1014.6 0.0
16/12:00pm 32.5 29.9 9.3 24 13.1 N 13 17 7 9 1015.0 1015.0 0.0
16/11:30am 32.0 29.3 8.9 24 12.9 N 13 17 7 9 1015.5 1015.5 0.0
16/11:00am 31.7 27.7 6.7 21 13.5 NNE 17 20 9 11 1016.0 1016.0 0.0
16/10:30am 30.9 27.2 8.0 24 12.6 NNE 17 24 9 13 1016.0 1016.0 0.0
16/10:00am 30.8 27.8 6.0 21 13.2 NNW 11 13 6 7 1016.0 1016.0 0.0
16/09:30am 28.7 26.5 9.4 30 10.7 NNW 11 11 6 6 1016.0 1016.0 0.0
16/09:00am 28.7 27.7 8.9 29 10.9 SSW 4 7 2 4 1016.2 1016.2 0.0
16/08:30am 26.7 23.4 2.6 21 11.8 SSW 9 11 5 6 1016.1 1016.1 0.0
16/08:00am 24.4 23.4 5.7 30 9.5 CALM 0 9 0 5 1016.0 1016.0 0.0
16/07:30am 21.9 22.2 11.0 50 6.0 CALM 0 6 0 3 1015.8 1015.8 0.0
16/07:00am 18.8 19.0 10.4 58 4.5 CALM 0 0 0 0 1015.5 1015.5 0.0
16/06:30am 16.7 16.8 10.1 65 3.5 CALM 0 0 0 0 1015.0 1015.0 0.0
16/06:00am 16.7 15.6 10.1 65 3.5 SW 6 7 3 4 1014.8 1014.8 0.0
16/05:30am 16.8 16.0 10.9 68 3.2 SW 6 7 3 4 1014.6 1014.6 0.0
16/05:00am 17.0 15.6 12.1 73 2.7 SW 11 13 6 7 1014.4 1014.4 0.0
16/04:30am 18.2 16.3 13.1 72 2.9 WSW 15 17 8 9 1014.3 1014.3 0.0
16/04:00am 19.3 17.4 14.3 73 2.9 SW 17 19 9 10 1014.1 1014.1 0.0
16/03:30am 19.0 18.4 15.7 81 2.0 SW 13 15 7 8 1014.1 1014.1 0.0
16/03:00am 18.9 17.2 14.6 76 2.5 SW 17 17 9 9 1014.3 1014.3 0.0
16/02:30am 20.1 19.1 16.5 80 2.2 WSW 17 19 9 10 1014.4 1014.4 0.0
16/02:00am 20.0 19.2 16.2 79 2.3 SW 15 19 8 10 1014.6 1014.6 0.0
16/01:30am 20.6 20.5 17.8 84 1.7 SW 15 19 8 10 1014.8 1014.8 0.0
16/01:00am 20.0 19.7 16.4 80 2.2 SW 13 15 7 8 1015.1 1015.1 0.0
16/12:30am 20.8 20.7 17.8 83 1.9 SW 15 17 8 9 1015.4 1015.4 0.0
16/12:00am 20.9 21.6 18.8 88 1.3 SW 13 15 7 8 1015.4 1015.4 0.0
 
Date/Time
WST
Temp
°C
App
Temp
°C
Dew
Point
°C
Rel
Hum
%
Delta-T
°C
Wind Press
QNH
hPa
Press
MSL
hPa
Rain since
9am
mm
Dir  Spd
km/h
Gust
km/h
Spd
kts
Gust
kts
15/11:30pm 20.5 20.8 16.9 80 2.2 SSW 11 13 6 7 1015.5 1015.5 0.0
15/11:00pm 23.9 24.6 18.8 73 3.2 WSW 13 15 7 8 1015.7 1015.7 0.0
15/10:30pm 24.6 25.2 17.8 66 4.3 W 11 13 6 7 1015.6 1015.6 0.0
15/10:00pm 24.9 24.5 18.1 66 4.3 W 17 19 9 10 1015.6 1015.6 0.0
15/09:30pm 25.1 25.0 17.8 64 4.6 W 15 17 8 9 1015.8 1015.8 0.0
15/09:00pm 25.6 24.7 15.9 55 5.9 WNW 15 17 8 9 1015.6 1015.6 0.0
15/08:30pm 26.4 25.4 14.5 48 7.1 W 13 19 7 10 1015.4 1015.4 0.0
15/08:00pm 26.1 25.6 17.7 60 5.3 W 17 20 9 11 1015.3 1015.3 0.0
15/07:30pm 26.2 26.6 19.1 65 4.6 WSW 15 19 8 10 1014.7 1014.7 0.0
15/07:00pm 27.6 26.3 12.4 39 8.8 WNW 11 13 6 7 1014.4 1014.4 0.0
15/06:30pm 28.2 26.8 10.9 34 9.8 NW 9 13 5 7 1014.1 1014.1 0.0
15/06:00pm 29.2 25.8 7.7 26 11.6 NW 15 20 8 11 1013.9 1013.9 0.0
15/05:30pm 30.8 28.5 11.7 31 11.1 NNW 15 20 8 11 1014.0 1014.0 0.0
15/05:00pm 31.8 29.0 9.9 26 12.5 N 15 20 8 11 1013.7 1013.7 0.0
15/04:30pm 32.7 29.1 6.8 20 14.1 N 15 20 8 11 1013.6 1013.6 0.0
15/04:00pm 32.8 29.4 7.6 21 13.9 N 15 20 8 11 1013.8 1013.8 0.0
15/03:30pm 33.7 27.7 -6.8 7 17.7 NNE 17 19 9 10 1013.8 1013.8 0.0
15/03:00pm 34.4 28.8 -6.3 7 18.0 NNE 15 19 8 10 1013.9 1013.9 0.0
15/02:30pm 34.2 28.4 -4.7 8 17.7 NNE 17 20 9 11 1014.2 1014.2 0.0
15/02:00pm 34.4 28.6 -4.6 8 17.8 NNE 17 20 9 11 1014.4 1014.4 0.0
15/01:30pm 34.2 28.8 -4.7 8 17.7 NE 15 20 8 11 1014.7 1014.7 0.0
15/01:00pm 33.6 28.5 -2.2 10 16.9 NNE 15 20 8 11 1015.0 1015.0 0.0
15/12:30pm 33.1 28.6 2.1 14 15.6 NNE 15 19 8 10 1015.3 1015.3 0.0
15/12:00pm 32.5 26.9 -3.0 10 16.4 NNE 17 19 9 10 1015.8 1015.8 0.0
15/11:30am 31.5 26.4 0.8 14 15.0 NNE 17 20 9 11 1016.0 1016.0 0.0
15/11:00am 30.7 26.2 2.0 16 14.2 N 15 19 8 10 1016.4 1016.4 0.0
15/10:30am 29.7 26.1 5.1 21 12.8 NNE 13 19 7 10 1016.7 1016.7 0.0
15/10:00am 28.5 24.8 4.7 22 12.2 NE 13 17 7 9 1017.0 1017.0 0.0
15/09:30am 27.5 23.3 3.9 22 11.9 NE 15 19 8 10 1017.1 1017.1 0.0
15/09:00am 26.9 23.5 4.0 23 11.5 NE 11 17 6 9 1017.2 1017.2 0.0
15/08:30am 25.9 22.4 1.2 20 11.7 ENE 9 11 5 6 1017.2 1017.2 0.0
15/08:00am 24.7 21.2 -2.8 16 11.9 ENE 6 7 3 4 1017.1 1017.1 0.0
15/07:30am 21.7 18.4 -1.6 21 10.1 E 6 7 3 4 1016.9 1016.9 0.0

Other formats

Comma delimited format used in spreadsheet applications
http://www.bom.gov.au/fwo/IDW60801/IDW60801.95307.axf

JavaScript Object Notation format (JSON) in row-major order
http://www.bom.gov.au/fwo/IDW60801/IDW60801.95307.json

Data quality

Most of these data are generated automatically and are frequently updated. Quality checks on data are not normally performed. It is possible for incorrect values to appear. Refer to information at About Latest Weather Observations and please check the disclaimer before using these data.